Time;durP1;ratioP1;P1;durP2;ratioP2;P2;SDS_P1;SDS_P2;PMS_P1;PMS_P2;Temp;Humidity;BMP_temperature;BMP_pressure;BME280_temperature;BME280_humidity;BME280_pressure;Samples;Min_cycle;Max_cycle;Signal;HPM_P1;HPM_P2
2021/01/31 00:00:31;;;;;;;;;;;;;;;2.33;100.00;91116.63;1062582;56;20185;-85
2021/01/31 00:01:32;;;;;;;;;;;;;;;2.37;100.00;91114.66;1060132;56;20754;-85
2021/01/31 00:02:32;;;;;;;;;;;;;;;2.48;100.00;91117.78;1056135;56;20182;-84
2021/01/31 00:03:32;;;;;;;;;;;;;;;2.54;100.00;91121.41;1058584;56;20151;-86
2021/01/31 00:04:33;;;;;;;;;;;;;;;2.50;100.00;91113.59;1060424;56;20181;-85
2021/01/31 00:05:33;;;;;;;;;;;;;;;2.48;100.00;91112.53;1060445;56;20181;-84
2021/01/31 00:06:34;;;;;;;;;;;;;;;2.56;100.00;91121.00;1060454;56;20154;-85
2021/01/31 00:07:34;;;;;;;;;;;;;;;2.62;100.00;91116.69;1060476;56;20181;-85
2021/01/31 00:08:34;;;;;;;;;;;;;;;2.61;100.00;91121.25;1060487;56;20157;-85
2021/01/31 00:09:35;;;;;;;;;;;;;;;2.59;100.00;91122.81;1060544;56;20185;-84
2021/01/31 00:10:35;;;;;;;;;;;;;;;2.58;100.00;91121.31;1060456;56;20262;-84
2021/01/31 00:11:35;;;;;;;;;;;;;;;2.50;100.00;91121.50;1062577;56;20155;-85
2021/01/31 00:12:36;;;;;;;;;;;;;;;2.49;100.00;91125.28;1062559;56;20174;-84
2021/01/31 00:13:36;;;;;;;;;;;;;;;2.49;100.00;91122.66;1060617;56;20147;-86
2021/01/31 00:14:37;;;;;;;;;;;;;;;2.48;100.00;91120.44;1058361;56;20151;-86
2021/01/31 00:15:38;;;;;;;;;;;;;;;2.57;100.00;91123.22;1056231;56;20167;-83
2021/01/31 00:16:39;;;;;;;;;;;;;;;2.64;100.00;91124.97;1060399;56;20180;-85
2021/01/31 00:17:39;;;;;;;;;;;;;;;2.60;100.00;91126.94;1060177;56;20242;-84
2021/01/31 00:18:41;;;;;;;;;;;;;;;2.50;100.00;91128.66;1060288;56;20146;-84
2021/01/31 00:19:41;;;;;;;;;;;;;;;2.51;100.00;91135.44;1060257;56;20242;-85
2021/01/31 00:20:44;;;;;;;;;;;;;;;2.53;100.00;91125.94;1058521;56;20189;-84
2021/01/31 00:21:44;;;;;;;;;;;;;;;2.52;100.00;91131.63;1060412;56;20285;-85
2021/01/31 00:22:45;;;;;;;;;;;;;;;2.50;100.00;91129.44;1060186;56;20270;-84
2021/01/31 00:23:45;;;;;;;;;;;;;;;2.49;100.00;91130.56;1060503;56;20170;-87
2021/01/31 00:24:53;;;;;;;;;;;;;;;2.50;100.00;91136.56;1062651;56;20154;-85
2021/01/31 00:25:53;;;;;;;;;;;;;;;2.48;100.00;91134.34;1062377;56;20281;-86
2021/01/31 00:26:54;;;;;;;;;;;;;;;2.46;100.00;91134.03;1060395;56;20775;-84
2021/01/31 00:27:54;;;;;;;;;;;;;;;2.56;100.00;91132.28;1062606;56;20174;-85
2021/01/31 00:28:55;;;;;;;;;;;;;;;2.46;100.00;91136.66;1065188;56;20141;-87
2021/01/31 00:29:55;;;;;;;;;;;;;;;2.51;100.00;91136.16;1060584;56;20159;-86
2021/01/31 00:30:56;;;;;;;;;;;;;;;2.50;100.00;91139.19;1060708;56;20688;-85
2021/01/31 00:31:57;;;;;;;;;;;;;;;2.45;100.00;91139.72;1060620;56;20684;-84
2021/01/31 00:32:57;;;;;;;;;;;;;;;2.42;100.00;91141.28;1060653;56;20150;-85
2021/01/31 00:33:57;;;;;;;;;;;;;;;2.39;100.00;91134.19;1064694;56;20185;-85
2021/01/31 00:34:58;;;;;;;;;;;;;;;2.44;100.00;91140.88;1062479;56;20184;-85
2021/01/31 00:35:58;;;;;;;;;;;;;;;2.42;100.00;91149.19;1062799;56;20177;-85
2021/01/31 00:36:58;;;;;;;;;;;;;;;2.41;100.00;91145.06;1060552;56;20151;-85
2021/01/31 00:37:59;;;;;;;;;;;;;;;2.33;100.00;91138.50;1058683;56;20703;-86
2021/01/31 00:39:00;;;;;;;;;;;;;;;2.32;100.00;91144.91;1060836;56;20674;-86
2021/01/31 00:40:00;;;;;;;;;;;;;;;2.30;100.00;91149.12;1058910;56;20178;-86
2021/01/31 00:41:01;;;;;;;;;;;;;;;2.27;100.00;91148.03;1058655;56;20154;-86
2021/01/31 00:42:01;;;;;;;;;;;;;;;2.23;100.00;91145.47;1060881;56;20170;-84
2021/01/31 00:43:02;;;;;;;;;;;;;;;2.29;100.00;91148.38;1063133;56;20178;-85
2021/01/31 00:44:03;;;;;;;;;;;;;;;2.29;100.00;91158.19;1060758;56;20233;-86
2021/01/31 00:45:05;;;;;;;;;;;;;;;2.23;100.00;91153.38;1058796;56;20155;-84
2021/01/31 00:46:06;;;;;;;;;;;;;;;2.26;100.00;91157.84;1063014;56;20185;-84
2021/01/31 00:47:06;;;;;;;;;;;;;;;2.27;100.00;91154.03;1062818;56;20182;-86
2021/01/31 00:48:07;;;;;;;;;;;;;;;2.25;100.00;91153.72;1060890;56;20174;-85
2021/01/31 00:49:09;;;;;;;;;;;;;;;2.25;100.00;91153.72;1061006;56;20256;-86
2021/01/31 00:50:14;;;;;;;;;;;;;;;2.20;100.00;91156.84;1058683;56;20147;-85
2021/01/31 00:51:14;;;;;;;;;;;;;;;2.26;100.00;91162.38;1056717;56;20760;-85
2021/01/31 00:52:14;;;;;;;;;;;;;;;2.21;100.00;91160.22;1056690;56;20194;-84
2021/01/31 00:53:15;;;;;;;;;;;;;;;2.14;100.00;91160.37;1058786;56;20194;-85
2021/01/31 00:54:16;;;;;;;;;;;;;;;2.08;100.00;91167.28;1058622;56;20666;-84
2021/01/31 00:55:16;;;;;;;;;;;;;;;2.11;100.00;91164.59;1056583;56;20175;-85
2021/01/31 00:56:16;;;;;;;;;;;;;;;2.13;100.00;91158.91;1058838;56;20155;-85
2021/01/31 00:57:17;;;;;;;;;;;;;;;2.13;100.00;91164.91;1062902;56;20177;-84
2021/01/31 00:58:17;;;;;;;;;;;;;;;2.13;100.00;91170.19;1062814;56;20638;-84
2021/01/31 00:59:17;;;;;;;;;;;;;;;2.06;100.00;91165.06;1058634;56;20155;-85
2021/01/31 01:00:20;;;;;;;;;;;;;;;2.03;100.00;91165.16;1058646;56;20167;-85
2021/01/31 01:01:21;;;;;;;;;;;;;;;2.03;100.00;91163.25;1058880;56;20162;-86
2021/01/31 01:02:21;;;;;;;;;;;;;;;2.04;100.00;91167.37;1060822;56;20155;-85
2021/01/31 01:03:22;;;;;;;;;;;;;;;2.06;100.00;91159.03;1062790;56;20166;-87
2021/01/31 01:04:23;;;;;;;;;;;;;;;2.07;100.00;91157.91;1058949;56;20177;-86
2021/01/31 01:05:25;;;;;;;;;;;;;;;2.09;100.00;91160.88;1055690;56;20677;-86
2021/01/31 01:06:25;;;;;;;;;;;;;;;2.01;100.00;91161.00;1058873;56;20205;-85
2021/01/31 01:07:26;;;;;;;;;;;;;;;1.97;100.00;91162.97;1061005;56;20157;-86
2021/01/31 01:08:26;;;;;;;;;;;;;;;1.93;100.00;91164.19;1061153;56;20159;-85
2021/01/31 01:09:26;;;;;;;;;;;;;;;2.00;100.00;91158.78;1063163;56;20193;-84
2021/01/31 01:10:31;;;;;;;;;;;;;;;2.07;100.00;91163.19;1063163;56;20142;-85
2021/01/31 01:11:31;;;;;;;;;;;;;;;2.00;100.00;91170.06;1060703;56;20170;-84
2021/01/31 01:12:31;;;;;;;;;;;;;;;1.95;100.00;91167.19;1060776;56;21119;-84
2021/01/31 01:13:32;;;;;;;;;;;;;;;1.88;100.00;91172.59;1063238;56;20162;-84
2021/01/31 01:14:33;;;;;;;;;;;;;;;1.87;100.00;91165.84;1061032;56;20300;-85
2021/01/31 01:15:33;;;;;;;;;;;;;;;1.86;100.00;91167.75;1056809;56;20644;-85
2021/01/31 01:16:34;;;;;;;;;;;;;;;1.87;100.00;91166.59;1058792;56;20538;-86
2021/01/31 01:17:34;;;;;;;;;;;;;;;1.97;100.00;91164.88;1059085;56;20171;-85
2021/01/31 01:18:36;;;;;;;;;;;;;;;1.97;100.00;91164.88;1056721;56;20156;-86
2021/01/31 01:19:37;;;;;;;;;;;;;;;1.96;100.00;91166.75;1056579;56;20191;-83
2021/01/31 01:20:37;;;;;;;;;;;;;;;1.91;100.00;91167.25;1060993;56;20151;-85
2021/01/31 01:21:37;;;;;;;;;;;;;;;1.90;100.00;91168.41;1061084;56;20673;-86
2021/01/31 01:22:38;;;;;;;;;;;;;;;1.87;100.00;91166.59;1058952;56;20177;-83
2021/01/31 01:23:38;;;;;;;;;;;;;;;1.83;100.00;91165.91;1063174;56;20173;-85
2021/01/31 01:24:39;;;;;;;;;;;;;;;1.83;100.00;91163.28;1060957;56;20189;-85
2021/01/31 01:25:39;;;;;;;;;;;;;;;1.80;100.00;91165.97;1060948;56;20170;-85
2021/01/31 01:26:39;;;;;;;;;;;;;;;1.81;100.00;91168.22;1060825;56;20678;-84
2021/01/31 01:27:40;;;;;;;;;;;;;;;1.84;100.00;91166.66;1058882;56;20155;-84
2021/01/31 01:28:40;;;;;;;;;;;;;;;1.84;100.00;91167.41;1058658;56;20576;-85
2021/01/31 01:29:41;;;;;;;;;;;;;;;1.85;100.00;91165.53;1060754;56;20229;-85
2021/01/31 01:30:41;;;;;;;;;;;;;;;1.81;100.00;91162.22;1058576;56;20695;-84
2021/01/31 01:31:41;;;;;;;;;;;;;;;1.72;100.00;91166.16;1058488;56;20182;-86
2021/01/31 01:32:42;;;;;;;;;;;;;;;1.73;100.00;91164.25;1060856;56;20143;-87
2021/01/31 01:33:43;;;;;;;;;;;;;;;1.73;100.00;91165.00;1060915;56;20177;-85
2021/01/31 01:34:43;;;;;;;;;;;;;;;1.72;100.00;91165.41;1060618;56;20743;-87
2021/01/31 01:35:43;;;;;;;;;;;;;;;1.68;100.00;91170.00;1062853;56;20189;-85
2021/01/31 01:36:44;;;;;;;;;;;;;;;1.66;100.00;91167.03;1064919;55;20765;-86
2021/01/31 01:37:44;;;;;;;;;;;;;;;1.67;100.00;91160.63;1064954;55;20602;-86
2021/01/31 01:38:45;;;;;;;;;;;;;;;1.69;100.00;91163.59;1060703;56;20182;-85
2021/01/31 01:39:45;;;;;;;;;;;;;;;1.70;100.00;91159.78;1058734;56;20235;-85
2021/01/31 01:40:46;;;;;;;;;;;;;;;1.66;100.00;91159.87;1058474;56;20151;-86
2021/01/31 01:41:46;;;;;;;;;;;;;;;1.61;100.00;91167.50;1058460;56;20612;-87
2021/01/31 01:42:47;;;;;;;;;;;;;;;1.59;100.00;91167.19;1058666;56;20150;-85
2021/01/31 01:43:50;;;;;;;;;;;;;;;1.61;100.00;91159.59;1058727;56;20270;-85
2021/01/31 01:44:50;;;;;;;;;;;;;;;1.59;100.00;91165.28;1060633;56;20170;-86
2021/01/31 01:46:11;;;;;;;;;;;;;;;1.57;100.00;91161.56;1060833;56;20150;-85
2021/01/31 01:47:17;;;;;;;;;;;;;;;1.55;100.00;91154.09;1053724;56;20270;-85
2021/01/31 01:48:18;;;;;;;;;;;;;;;1.59;100.00;91164.56;1059760;56;20155;-85
2021/01/31 01:49:18;;;;;;;;;;;;;;;1.55;100.00;91169.88;1060831;56;20237;-86
2021/01/31 01:50:28;;;;;;;;;;;;;;;1.62;100.00;91163.72;1059416;56;21002;-85
2021/01/31 01:51:40;;;;;;;;;;;;;;;1.57;100.00;91167.56;1058681;56;20178;-85
2021/01/31 01:52:40;;;;;;;;;;;;;;;1.51;100.00;91169.94;1059190;56;20621;-84
2021/01/31 01:53:41;;;;;;;;;;;;;;;1.54;100.00;91172.91;1062704;56;20154;-85
2021/01/31 01:54:43;;;;;;;;;;;;;;;1.57;100.00;91172.09;1060600;56;20237;-85
2021/01/31 01:56:04;;;;;;;;;;;;;;;1.57;100.00;91169.47;1058483;56;20233;-85
2021/01/31 01:57:15;;;;;;;;;;;;;;;1.49;100.00;91169.63;1059193;56;20182;-85
2021/01/31 01:58:17;;;;;;;;;;;;;;;1.41;100.00;91168.28;1057122;56;20205;-85
2021/01/31 01:59:18;;;;;;;;;;;;;;;1.41;100.00;91175.44;1058801;56;20170;-85
2021/01/31 02:00:19;;;;;;;;;;;;;;;1.41;100.00;91168.28;1060780;56;20604;-85
2021/01/31 02:01:20;;;;;;;;;;;;;;;1.42;100.00;91169.00;1058865;56;20170;-84
2021/01/31 02:02:22;;;;;;;;;;;;;;;1.39;100.00;91167.19;1060967;56;20257;-86
2021/01/31 02:03:24;;;;;;;;;;;;;;;1.39;100.00;91164.56;1065029;55;20180;-84
2021/01/31 02:04:25;;;;;;;;;;;;;;;1.34;100.00;91157.88;1062875;56;20209;-86
2021/01/31 02:05:25;;;;;;;;;;;;;;;1.39;100.00;91170.56;1058963;56;20163;-85
2021/01/31 02:06:27;;;;;;;;;;;;;;;1.36;100.00;91167.97;1058616;56;20264;-85
2021/01/31 02:07:28;;;;;;;;;;;;;;;1.45;100.00;91163.69;1060561;56;20265;-85
2021/01/31 02:08:28;;;;;;;;;;;;;;;1.45;100.00;91174.22;1060781;56;20155;-85
2021/01/31 02:09:29;;;;;;;;;;;;;;;1.40;100.00;91158.87;1063064;56;20192;-84
2021/01/31 02:10:29;;;;;;;;;;;;;;;1.41;100.00;91162.28;1062679;56;20177;-86
2021/01/31 02:11:29;;;;;;;;;;;;;;;1.37;100.00;91164.22;1058817;56;20159;-85
2021/01/31 02:12:30;;;;;;;;;;;;;;;1.37;100.00;91159.69;1058569;56;20148;-85
2021/01/31 02:13:30;;;;;;;;;;;;;;;1.40;100.00;91158.13;1058537;56;20673;-84
2021/01/31 02:14:32;;;;;;;;;;;;;;;1.43;100.00;91152.81;1058594;56;20261;-84
2021/01/31 02:15:32;;;;;;;;;;;;;;;1.44;100.00;91162.19;1058571;56;20186;-86
2021/01/31 02:16:36;;;;;;;;;;;;;;;1.43;100.00;91163.34;1060694;56;20593;-86
2021/01/31 02:17:54;;;;;;;;;;;;;;;1.35;100.00;91164.63;1062528;56;20170;-85
2021/01/31 02:18:55;;;;;;;;;;;;;;;1.31;100.00;91173.72;1058747;56;20322;-86
2021/01/31 02:20:21;;;;;;;;;;;;;;;1.29;100.00;91165.50;1060239;56;20193;-86
2021/01/31 02:21:21;;;;;;;;;;;;;;;1.26;100.00;91167.03;1063084;56;20162;-84
2021/01/31 02:22:48;;;;;;;;;;;;;;;1.27;100.00;91173.78;1058553;56;20151;-86
2021/01/31 02:24:06;;;;;;;;;;;;;;;1.24;100.00;91166.72;1056991;56;20276;-86
2021/01/31 02:25:28;;;;;;;;;;;;;;;1.28;100.00;91164.75;1059825;56;20248;-85
2021/01/31 02:26:31;;;;;;;;;;;;;;;1.30;100.00;91164.34;1061261;56;21036;-85
2021/01/31 02:27:50;;;;;;;;;;;;;;;1.28;100.00;91159.50;1060863;56;20178;-84
2021/01/31 02:29:19;;;;;;;;;;;;;;;1.22;100.00;91161.09;1062094;56;20189;-85
2021/01/31 02:30:20;;;;;;;;;;;;;;;1.24;100.00;91161.47;1063037;56;20177;-87
2021/01/31 02:31:39;;;;;;;;;;;;;;;1.26;100.00;91162.53;1058760;56;20162;-85
2021/01/31 02:32:39;;;;;;;;;;;;;;;1.26;100.00;91164.41;1059449;56;20198;-84
2021/01/31 02:33:42;;;;;;;;;;;;;;;1.37;100.00;91164.97;1058694;56;20155;-84
2021/01/31 02:34:53;;;;;;;;;;;;;;;1.44;100.00;91174.59;1058531;56;20179;-85
2021/01/31 02:35:59;;;;;;;;;;;;;;;1.31;100.00;91165.81;1059283;56;20178;-86
2021/01/31 02:37:18;;;;;;;;;;;;;;;1.34;100.00;91170.28;1060882;56;20230;-85
2021/01/31 02:38:40;;;;;;;;;;;;;;;1.32;100.00;91170.72;1061341;56;20165;-84
2021/01/31 02:39:45;;;;;;;;;;;;;;;1.22;100.00;91179.53;1060771;56;20218;-84
2021/01/31 02:40:55;;;;;;;;;;;;;;;1.21;100.00;91178.03;1058436;56;20189;-84
2021/01/31 02:42:10;;;;;;;;;;;;;;;1.26;100.00;91178.31;1061501;56;20171;-85
2021/01/31 02:43:14;;;;;;;;;;;;;;;1.31;100.00;91185.00;1060611;56;20597;-86
2021/01/31 02:44:16;;;;;;;;;;;;;;;1.33;100.00;91180.09;1060839;56;20150;-84
2021/01/31 02:45:23;;;;;;;;;;;;;;;1.39;100.00;91188.97;1060642;56;20685;-85
2021/01/31 02:46:34;;;;;;;;;;;;;;;1.36;100.00;91179.28;1056811;56;20151;-85
2021/01/31 02:47:36;;;;;;;;;;;;;;;1.34;100.00;91186.09;1061152;56;20186;-85
2021/01/31 02:48:41;;;;;;;;;;;;;;;1.35;100.00;91175.13;1060707;56;20167;-86
2021/01/31 02:50:04;;;;;;;;;;;;;;;1.34;100.00;91186.09;1060494;56;20261;-85
2021/01/31 02:51:22;;;;;;;;;;;;;;;1.31;100.00;91185.00;1061709;56;20162;-85
2021/01/31 02:52:29;;;;;;;;;;;;;;;1.29;100.00;91184.66;1061052;56;20169;-84
2021/01/31 02:53:40;;;;;;;;;;;;;;;1.30;100.00;91185.41;1063055;56;20212;-85
2021/01/31 02:54:43;;;;;;;;;;;;;;;1.28;100.00;91179.81;1060432;56;20211;-84
2021/01/31 02:55:51;;;;;;;;;;;;;;;1.29;100.00;91191.81;1056402;56;20183;-85
2021/01/31 02:56:58;;;;;;;;;;;;;;;1.28;100.00;91193.72;1059001;56;20190;-86
2021/01/31 02:58:02;;;;;;;;;;;;;;;1.22;100.00;91197.94;1060606;56;20168;-86
2021/01/31 02:59:11;;;;;;;;;;;;;;;1.22;100.00;91192.69;1060293;56;20151;-85
2021/01/31 03:00:15;;;;;;;;;;;;;;;1.17;100.00;91191.25;1059094;56;20751;-84
2021/01/31 03:01:19;;;;;;;;;;;;;;;1.22;100.00;91190.78;1060630;56;20197;-87
2021/01/31 03:02:23;;;;;;;;;;;;;;;1.22;100.00;91193.41;1058055;56;20265;-85
2021/01/31 03:03:34;;;;;;;;;;;;;;;1.18;100.00;91186.75;1060850;56;20192;-85
2021/01/31 03:04:36;;;;;;;;;;;;;;;1.21;100.00;91184.03;1062665;56;20251;-85
2021/01/31 03:05:42;;;;;;;;;;;;;;;1.21;100.00;91183.31;1062786;56;20662;-87
2021/01/31 03:06:48;;;;;;;;;;;;;;;1.22;100.00;91185.53;1062482;56;20251;-85
2021/01/31 03:07:55;;;;;;;;;;;;;;;1.22;100.00;91190.06;1062920;56;20185;-85
2021/01/31 03:09:15;;;;;;;;;;;;;;;1.22;100.00;91187.41;1060785;56;20590;-87
2021/01/31 03:10:29;;;;;;;;;;;;;;;1.24;100.00;91185.13;1061433;56;20162;-85
2021/01/31 03:11:36;;;;;;;;;;;;;;;1.23;100.00;91186.28;1060358;56;20177;-86
2021/01/31 03:12:39;;;;;;;;;;;;;;;1.26;100.00;91188.09;1061069;56;20163;-85
2021/01/31 03:14:00;;;;;;;;;;;;;;;1.26;100.00;91190.72;1062963;56;20660;-85
2021/01/31 03:15:06;;;;;;;;;;;;;;;1.33;100.00;91187.97;1062495;56;20606;-85
2021/01/31 03:16:12;;;;;;;;;;;;;;;1.37;100.00;91193.91;1056511;56;20627;-84
2021/01/31 03:17:17;;;;;;;;;;;;;;;1.42;100.00;91188.19;1058845;56;20248;-85
2021/01/31 03:18:20;;;;;;;;;;;;;;;1.44;100.00;91191.13;1058738;56;20144;-84
2021/01/31 03:19:26;;;;;;;;;;;;;;;1.47;100.00;91189.59;1060800;56;20206;-84
2021/01/31 03:20:29;;;;;;;;;;;;;;;1.44;100.00;91188.50;1056164;56;20155;-84
2021/01/31 03:21:30;;;;;;;;;;;;;;;1.42;100.00;91190.81;1060804;56;20186;-84
2021/01/31 03:22:51;;;;;;;;;;;;;;;1.42;100.00;91190.81;1062841;56;20150;-85
2021/01/31 03:24:00;;;;;;;;;;;;;;;1.43;100.00;91189.66;1064755;55;20181;-84
2021/01/31 03:25:02;;;;;;;;;;;;;;;1.43;100.00;91192.28;1060985;56;20205;-86
2021/01/31 03:26:07;;;;;;;;;;;;;;;1.39;100.00;91186.34;1060648;56;20158;-85
2021/01/31 03:27:15;;;;;;;;;;;;;;;1.39;100.00;91188.97;1063079;56;20162;-85
2021/01/31 03:28:16;;;;;;;;;;;;;;;1.41;100.00;91197.22;1063031;56;20155;-86
2021/01/31 03:29:16;;;;;;;;;;;;;;;1.40;100.00;91192.34;1062772;56;20181;-84
2021/01/31 03:30:17;;;;;;;;;;;;;;;1.43;100.00;91202.81;1062810;56;20142;-85
2021/01/31 03:31:20;;;;;;;;;;;;;;;1.45;100.00;91199.78;1060489;56;20213;-86
2021/01/31 03:32:26;;;;;;;;;;;;;;;1.41;100.00;91197.22;1060880;56;20178;-86
2021/01/31 03:33:33;;;;;;;;;;;;;;;1.41;100.00;91199.84;1060090;56;20154;-85
2021/01/31 03:34:39;;;;;;;;;;;;;;;1.42;100.00;91203.22;1060861;56;20608;-86
2021/01/31 03:35:45;;;;;;;;;;;;;;;1.40;100.00;91203.63;1062970;56;20172;-86
2021/01/31 03:36:49;;;;;;;;;;;;;;;1.39;100.00;91199.50;1060715;56;20174;-85
2021/01/31 03:37:55;;;;;;;;;;;;;;;1.40;100.00;91202.88;1060826;56;20166;-86
2021/01/31 03:38:56;;;;;;;;;;;;;;;1.44;100.00;91204.28;1058469;56;20159;-84
2021/01/31 03:39:57;;;;;;;;;;;;;;;1.43;100.00;91204.72;1060621;56;20166;-85
2021/01/31 03:41:00;;;;;;;;;;;;;;;1.43;100.00;91204.72;1060705;56;20163;-85
2021/01/31 03:42:00;;;;;;;;;;;;;;;1.42;100.00;91203.97;1058054;56;20181;-86
2021/01/31 03:43:01;;;;;;;;;;;;;;;1.40;100.00;91200.97;1060548;56;20174;-85
2021/01/31 03:44:01;;;;;;;;;;;;;;;1.38;100.00;91210.44;1060541;56;20177;-86
2021/01/31 03:45:05;;;;;;;;;;;;;;;1.43;100.00;91207.34;1056188;56;20660;-85
2021/01/31 03:46:11;;;;;;;;;;;;;;;1.41;100.00;91213.03;1058461;56;20189;-86
2021/01/31 03:47:25;;;;;;;;;;;;;;;1.42;100.00;91206.59;1060515;56;20154;-85
2021/01/31 03:48:28;;;;;;;;;;;;;;;1.39;100.00;91209.28;1060986;56;20182;-87
2021/01/31 03:49:35;;;;;;;;;;;;;;;1.37;100.00;91214.97;1058182;56;20224;-86
2021/01/31 03:50:35;;;;;;;;;;;;;;;1.43;100.00;91213.34;1058196;56;20182;-85
2021/01/31 03:51:36;;;;;;;;;;;;;;;1.47;100.00;91203.50;1056086;56;20162;-85
2021/01/31 03:52:36;;;;;;;;;;;;;;;1.36;100.00;91205.59;1058444;56;20198;-84
2021/01/31 03:53:37;;;;;;;;;;;;;;;1.35;100.00;91211.25;1060326;56;20191;-85
2021/01/31 03:54:37;;;;;;;;;;;;;;;1.32;100.00;91214.69;1060529;56;20175;-86
2021/01/31 03:55:40;;;;;;;;;;;;;;;1.32;100.00;91217.31;1060298;56;20189;-86
2021/01/31 03:56:45;;;;;;;;;;;;;;;1.36;100.00;91215.34;1060492;56;20158;-85
2021/01/31 03:57:48;;;;;;;;;;;;;;;1.37;100.00;91219.50;1062732;56;20726;-85
2021/01/31 03:58:51;;;;;;;;;;;;;;;1.33;100.00;91218.81;1060625;56;20212;-85
2021/01/31 04:00:07;;;;;;;;;;;;;;;1.33;100.00;91222.19;1060131;56;20154;-86
2021/01/31 04:01:07;;;;;;;;;;;;;;;1.31;100.00;91224.47;1059357;56;20166;-85
2021/01/31 04:02:09;;;;;;;;;;;;;;;1.34;100.00;91226.31;1058499;56;20181;-84
2021/01/31 04:03:17;;;;;;;;;;;;;;;1.31;100.00;91219.19;1058584;56;20223;-84
2021/01/31 04:04:20;;;;;;;;;;;;;;;1.31;100.00;91219.19;1058428;56;20163;-85
2021/01/31 04:05:21;;;;;;;;;;;;;;;1.38;100.00;91221.72;1060693;56;20261;-86
2021/01/31 04:06:26;;;;;;;;;;;;;;;1.31;100.00;91227.09;1058257;56;20155;-85
2021/01/31 04:07:29;;;;;;;;;;;;;;;1.30;100.00;91216.97;1061040;56;20607;-86
2021/01/31 04:08:31;;;;;;;;;;;;;;;1.30;100.00;91225.63;1060794;56;20178;-86
2021/01/31 04:09:33;;;;;;;;;;;;;;;1.28;100.00;91219.28;1058620;56;20163;-86
2021/01/31 04:10:34;;;;;;;;;;;;;;;1.30;100.00;91227.50;1060359;56;20236;-85
2021/01/31 04:11:36;;;;;;;;;;;;;;;1.29;100.00;91220.78;1060176;56;20703;-84
2021/01/31 04:12:38;;;;;;;;;;;;;;;1.28;100.00;91221.91;1062434;56;20184;-84
2021/01/31 04:13:38;;;;;;;;;;;;;;;1.28;100.00;91225.28;1060274;56;20178;-85
2021/01/31 04:14:41;;;;;;;;;;;;;;;1.28;100.00;91224.56;1062944;56;20162;-85
2021/01/31 04:15:43;;;;;;;;;;;;;;;1.27;100.00;91229.06;1062457;56;20177;-85
2021/01/31 04:16:45;;;;;;;;;;;;;;;1.24;100.00;91224.62;1060554;56;20185;-85
2021/01/31 04:17:48;;;;;;;;;;;;;;;1.26;100.00;91223.03;1060337;56;20260;-84
2021/01/31 04:18:49;;;;;;;;;;;;;;;1.27;100.00;91221.16;1058324;56;20154;-84
2021/01/31 04:19:49;;;;;;;;;;;;;;;1.23;100.00;91221.25;1058456;56;20151;-85
2021/01/31 04:20:50;;;;;;;;;;;;;;;1.19;100.00;91220.56;1060388;56;20147;-86
2021/01/31 04:21:50;;;;;;;;;;;;;;;1.20;100.00;91222.03;1058198;56;20167;-84
2021/01/31 04:22:51;;;;;;;;;;;;;;;1.15;100.00;91221.78;1060388;56;20151;-86
2021/01/31 04:23:51;;;;;;;;;;;;;;;1.11;100.00;91221.81;1062644;56;20584;-85
2021/01/31 04:24:51;;;;;;;;;;;;;;;1.14;100.00;91221.03;1060570;56;20165;-84
2021/01/31 04:25:52;;;;;;;;;;;;;;;1.18;100.00;91220.94;1060791;56;20154;-85
2021/01/31 04:26:52;;;;;;;;;;;;;;;1.16;100.00;91213.47;1062849;56;20591;-86
2021/01/31 04:27:53;;;;;;;;;;;;;;;1.19;100.00;91222.44;1062593;56;20166;-85
2021/01/31 04:28:53;;;;;;;;;;;;;;;1.19;100.00;91214.56;1060443;56;20628;-86
2021/01/31 04:29:54;;;;;;;;;;;;;;;1.15;100.00;91224.41;1060454;56;20172;-86
2021/01/31 04:30:57;;;;;;;;;;;;;;;1.11;100.00;91229.72;1060544;56;20186;-84
2021/01/31 04:31:57;;;;;;;;;;;;;;;1.10;100.00;91216.94;1060272;56;20246;-85
2021/01/31 04:32:58;;;;;;;;;;;;;;;1.10;100.00;91219.56;1060721;56;20691;-83
2021/01/31 04:33:58;;;;;;;;;;;;;;;1.09;100.00;91226.00;1060770;56;20185;-83
2021/01/31 04:34:59;;;;;;;;;;;;;;;1.09;100.00;91226.72;1060738;56;20151;-84
2021/01/31 04:35:59;;;;;;;;;;;;;;;1.08;100.00;91222.63;1063058;56;20190;-85
2021/01/31 04:36:59;;;;;;;;;;;;;;;1.09;100.00;91224.09;1060316;56;20178;-85
2021/01/31 04:38:00;;;;;;;;;;;;;;;1.09;100.00;91218.84;1058548;56;20190;-85
2021/01/31 04:39:00;;;;;;;;;;;;;;;1.03;100.00;91224.97;1062916;56;20177;-86
2021/01/31 04:40:03;;;;;;;;;;;;;;;1.06;100.00;91226.81;1058278;56;20611;-85
2021/01/31 04:41:03;;;;;;;;;;;;;;;1.07;100.00;91220.41;1058603;56;20163;-86
2021/01/31 04:42:03;;;;;;;;;;;;;;;1.07;100.00;91226.41;1060805;56;20217;-85
2021/01/31 04:43:08;;;;;;;;;;;;;;;1.04;100.00;91223.81;1060694;56;20686;-85
2021/01/31 04:44:14;;;;;;;;;;;;;;;1.15;100.00;91227.03;1062965;56;20158;-85
2021/01/31 04:45:14;;;;;;;;;;;;;;;1.12;100.00;91223.31;1062763;56;20317;-85
2021/01/31 04:46:18;;;;;;;;;;;;;;;1.03;100.00;91224.97;1062886;56;20162;-85
2021/01/31 04:47:18;;;;;;;;;;;;;;;1.12;100.00;91219.94;1064644;56;20166;-86
2021/01/31 04:48:40;;;;;;;;;;;;;;;1.08;100.00;91221.88;1058303;56;20250;-86
2021/01/31 04:49:58;;;;;;;;;;;;;;;1.01;100.00;91220.13;1061161;56;20159;-84
2021/01/31 04:51:17;;;;;;;;;;;;;;;1.08;100.00;91211.34;1060981;56;20155;-85
2021/01/31 04:52:30;;;;;;;;;;;;;;;1.07;100.00;91217.78;1058670;56;20151;-85
2021/01/31 04:53:49;;;;;;;;;;;;;;;0.99;100.00;91215.25;1058559;56;20146;-85
2021/01/31 04:55:02;;;;;;;;;;;;;;;1.02;100.00;91223.50;1059548;56;20159;-84
2021/01/31 04:56:15;;;;;;;;;;;;;;;1.03;100.00;91217.09;1058401;56;20190;-85
2021/01/31 04:57:28;;;;;;;;;;;;;;;1.05;100.00;91222.69;1058713;56;20170;-86
2021/01/31 04:58:31;;;;;;;;;;;;;;;1.03;100.00;91222.34;1059021;56;20159;-86
2021/01/31 04:59:39;;;;;;;;;;;;;;;1.10;100.00;91225.59;1062724;56;20251;-85
2021/01/31 05:00:44;;;;;;;;;;;;;;;1.07;100.00;91233.56;1060132;56;21097;-85
2021/01/31 05:01:44;;;;;;;;;;;;;;;1.10;100.00;91232.72;1060673;56;20177;-86
2021/01/31 05:02:47;;;;;;;;;;;;;;;1.09;100.00;91232.00;1060564;56;20201;-85
2021/01/31 05:04:07;;;;;;;;;;;;;;;1.06;100.00;91235.44;1058589;56;20620;-86
2021/01/31 05:05:34;;;;;;;;;;;;;;;1.06;100.00;91238.06;1062987;56;20245;-83
2021/01/31 05:06:36;;;;;;;;;;;;;;;1.07;100.00;91239.56;1057649;56;20166;-87
2021/01/31 05:07:43;;;;;;;;;;;;;;;1.05;100.00;91235.81;1057730;56;20185;-85
2021/01/31 05:08:48;;;;;;;;;;;;;;;1.11;100.00;91240.25;1057580;56;20178;-84
2021/01/31 05:09:49;;;;;;;;;;;;;;;1.20;100.00;91240.47;1058567;56;20154;-86
2021/01/31 05:10:51;;;;;;;;;;;;;;;1.18;100.00;91239.34;1060353;56;20616;-85
2021/01/31 05:12:03;;;;;;;;;;;;;;;1.19;100.00;91238.97;1058207;56;20178;-85
2021/01/31 05:13:06;;;;;;;;;;;;;;;1.20;100.00;91240.47;1059020;56;20254;-84
2021/01/31 05:14:09;;;;;;;;;;;;;;;1.22;100.00;91240.03;1062357;56;20170;-84
2021/01/31 05:15:15;;;;;;;;;;;;;;;1.23;100.00;91244.94;1062570;56;20154;-85
2021/01/31 05:16:16;;;;;;;;;;;;;;;1.25;100.00;91236.63;1058657;56;20178;-84
2021/01/31 05:17:18;;;;;;;;;;;;;;;1.20;100.00;91235.19;1058215;56;20228;-86
2021/01/31 05:18:18;;;;;;;;;;;;;;;1.11;100.00;91242.13;1060383;56;20158;-84
2021/01/31 05:19:23;;;;;;;;;;;;;;;1.16;100.00;91241.66;1060659;56;20151;-84
2021/01/31 05:20:28;;;;;;;;;;;;;;;1.19;100.00;91238.97;1060556;56;20643;-86
2021/01/31 05:21:30;;;;;;;;;;;;;;;1.17;100.00;91246.50;1058474;56;20159;-86
2021/01/31 05:22:33;;;;;;;;;;;;;;;1.14;100.00;91241.31;1058086;56;20166;-85
2021/01/31 05:23:35;;;;;;;;;;;;;;;1.20;100.00;91250.25;1058634;56;20158;-86
2021/01/31 05:24:36;;;;;;;;;;;;;;;1.22;100.00;91247.94;1062980;56;20181;-85
2021/01/31 05:25:37;;;;;;;;;;;;;;;1.27;100.00;91250.09;1060779;56;20147;-85
2021/01/31 05:26:40;;;;;;;;;;;;;;;1.25;100.00;91252.41;1058864;56;20225;-84
2021/01/31 05:27:42;;;;;;;;;;;;;;;1.17;100.00;91246.50;1060907;56;20173;-85
2021/01/31 05:28:44;;;;;;;;;;;;;;;1.16;100.00;91252.19;1058427;56;20159;-86
2021/01/31 05:29:44;;;;;;;;;;;;;;;1.10;100.00;91254.53;1060765;56;20268;-86
2021/01/31 05:30:45;;;;;;;;;;;;;;;1.14;100.00;91246.56;1063079;56;20241;-85
2021/01/31 05:31:52;;;;;;;;;;;;;;;0.99;100.00;91249.44;1062234;56;20158;-86
2021/01/31 05:33:00;;;;;;;;;;;;;;;1.10;100.00;91246.66;1063230;56;20189;-85